Flight Track Log - Related Links

Times and Time Zones

All times are in EDT time to prevent confusion due to time zone crossing. See the SWA1998 flight status page for this flight to view local times or setup timezone preferences in your user account.

Time Position Orientation Groundspeed Altitude Reporting Facility
EDT Latitude Longitude Course Direction KTS MPH feet Rate Location/Type
Tue 08:39:27 PM 42.1994 -83.3608 226° Southwest 182 209 1,400  Level Cleveland Center
Tue 08:40:35 PM 42.1561 -83.4206 226° Southwest 208 239 5,000 2,821 Climbing Cleveland Center
Tue 08:41:41 PM 42.1333 -83.5036 250° West 253 291 7,700 2,745 Climbing Cleveland Center
Tue 08:42:09 PM 42.1450 -83.5322 299° West 259 298 9,300 3,491 Climbing Cleveland Center
Tue 08:42:36 PM 42.1628 -83.5694 303° West 251 289 10,900 2,000 Climbing Cleveland Center
Tue 08:43:09 PM 42.1806 -83.6150 298° West 270 311 11,300 1,869 Climbing Cleveland Center
Tue 08:43:37 PM 42.2022 -83.6608 303° West 289 333 12,800 1,800 Climbing Cleveland Center
Tue 08:44:09 PM 42.2178 -83.7039 296° West 317 365 13,100 1,957 Climbing Cleveland Center
Tue 08:45:09 PM 42.2608 -83.8069 299° West 317 365 15,800 2,500 Climbing Cleveland Center
Tue 08:46:09 PM 42.3036 -83.9075 300° West 312 359 18,100 2,350 Climbing Cleveland Center
Tue 08:47:09 PM 42.3467 -84.0081 300° West 312 359 20,500 2,200 Climbing Cleveland Center
Tue 08:48:09 PM 42.3914 -84.1144 300° West 317 365 22,500 2,100 Climbing Cleveland Center
Tue 08:49:09 PM 42.4272 -84.2319 292° West 327 376 24,700 1,500 Climbing Cleveland Center
Tue 08:50:09 PM 42.4289 -84.3728 271° West 341 392 25,500 1,696 Climbing Cleveland Center
Tue 08:52:20 PM 42.4408 -84.6992 273° West 382 440 30,100 1,990 Climbing Chicago Center
Tue 08:53:22 PM 42.4444 -84.8378 272° West 372 428 31,900 968 Climbing Chicago Center
Tue 08:54:24 PM 42.4469 -84.9761 271° West 368 423 32,100 581 Climbing Chicago Center
Tue 08:55:26 PM 42.4503 -85.1156 272° West 371 427 33,100 1,065 Climbing Chicago Center
Tue 08:56:28 PM 42.4519 -85.2511 271° West 364 419 34,300 1,113 Climbing Chicago Center
Tue 08:57:30 PM 42.4550 -85.3883 272° West 364 419 35,400 871 Climbing Chicago Center
Tue 08:58:32 PM 42.4575 -85.5528 271° West 364 419 36,100 339 Climbing Chicago Center
Tue 08:59:34 PM 42.4594 -85.6894 271° West 363 418 36,100  Level Chicago Center
Tue 09:00:36 PM 42.4622 -85.8269 272° West 364 419 36,100  Level Chicago Center
Tue 09:01:38 PM 42.4631 -85.9669 271° West 368 423 36,100  Level Chicago Center
Tue 09:02:40 PM 42.4639 -86.1050 271° West 367 422 36,100  Level Chicago Center
Tue 09:03:42 PM 42.4469 -86.2447 261° West 372 428 36,100  Level Chicago Center
Tue 09:04:44 PM 42.4297 -86.3839 261° West 375 432 36,100  Level Chicago Center
Tue 09:05:46 PM 42.4089 -86.5528 261° West 377 434 36,100  Level Chicago Center
Tue 09:06:48 PM 42.3900 -86.6944 260° West 376 433 36,100  Level Chicago Center
Tue 09:07:50 PM 42.3750 -86.8378 262° West 383 441 36,100  Level Chicago Center
Tue 09:08:52 PM 42.3561 -86.9803 260° West 387 445 36,100  Level Chicago Center
Tue 09:09:54 PM 42.3350 -87.1217 259° West 387 445 36,100  Level Chicago Center
Tue 09:10:56 PM 42.3164 -87.2664 260° West 392 451 36,100  Level Chicago Center
Tue 09:11:57 PM 42.2922 -87.4411 259° West 394 453 36,100  Level Chicago Center
Tue 09:12:59 PM 42.2725 -87.5844 260° West 393 452 36,100  Level Chicago Center
Tue 09:14:01 PM 42.2528 -87.7300 260° West 396 456 36,100  Level Chicago Center
Tue 09:15:03 PM 42.2333 -87.8692 259° West 385 443 36,100  Level Chicago Center
Tue 09:16:05 PM 42.2256 -88.0058 266° West 374 430 36,100  Level Chicago Center
Tue 09:17:06 PM 42.2375 -88.1711 276° West 373 429 36,100  Level Chicago Center
Tue 09:18:08 PM 42.2478 -88.3089 276° West 372 428 36,100  Level Chicago Center
Tue 09:19:10 PM 42.2589 -88.4481 276° West 377 434 36,100  Level Chicago Center
Tue 09:20:11 PM 42.2689 -88.5883 276° West 377 434 36,100  Level Chicago Center
Tue 09:21:13 PM 42.2786 -88.7308 275° West 383 441 36,100 -48 Level Chicago Center
Tue 09:22:15 PM 42.2900 -88.8908 276° West 386 444 36,000  Descending Chicago Center
Tue 09:23:17 PM 42.3000 -89.0367 275° West 389 448 36,100 49 Climbing Chicago Center
Tue 09:24:18 PM 42.3106 -89.1803 276° West 385 443 36,100  Level Chicago Center
Tue 09:25:20 PM 42.3200 -89.3250 275° West 385 443 36,100  Level Chicago Center
Tue 09:26:21 PM 42.3303 -89.4911 275° West 381 438 36,100  Level Chicago Center
Tue 09:27:23 PM 42.3392 -89.6347 275° West 382 440 36,100  Level Chicago Center
Tue 09:28:25 PM 42.3469 -89.7792 274° West 384 442 36,100  Level Chicago Center
Tue 09:29:26 PM 42.3569 -89.9281 275° West 385 443 36,100  Level Chicago Center
Tue 09:30:28 PM 42.3675 -90.0733 276° West 389 448 36,100  Level Chicago Center
Tue 09:31:30 PM 42.3747 -90.2172 274° West 387 445 36,100  Level Chicago Center
Tue 09:32:31 PM 42.3828 -90.3611 274° West 387 445 36,100  Level Chicago Center
Tue 09:33:33 PM 42.3906 -90.5053 274° West 388 447 36,100  Level Chicago Center
Tue 09:34:34 PM 42.3986 -90.6508 274° West 390 449 36,100  Level Chicago Center
Tue 09:35:36 PM 42.3894 -90.8261 266° West 398 458 36,100 -49 Level Chicago Center
Tue 09:36:37 PM 42.3756 -90.9675 262° West 386 444 36,000  Descending Chicago Center
Tue 09:37:39 PM 42.3606 -91.1133 262° West 391 450 36,100 49 Climbing Chicago Center
Tue 09:38:40 PM 42.3450 -91.2583 262° West 393 452 36,100  Level Chicago Center
Tue 09:39:42 PM 42.3306 -91.4022 262° West 390 449 36,100  Level Chicago Center
Tue 09:40:44 PM 42.3147 -91.5483 262° West 393 452 36,100  Level Chicago Center
Tue 09:41:45 PM 42.2994 -91.6908 262° West 388 447 36,100  Level Chicago Center
Tue 09:42:47 PM 42.2817 -91.8617 262° West 384 442 36,100 -49 Level Chicago Center
Tue 09:43:48 PM 42.2647 -92.0044 261° West 386 444 36,000  Descending Chicago Center
Tue 09:44:50 PM 42.2497 -92.1486 262° West 388 447 36,100 57 Climbing Chicago Center
Tue 09:45:33 PM 42.2400 -92.2350 261° West 387 445 36,100  Level Minneapolis Center
Tue 09:46:34 PM 42.2203 -92.4053 261° West 386 444 36,100  Level Minneapolis Center
Tue 09:47:35 PM 42.2039 -92.5500 261° West 390 449 36,100  Level Minneapolis Center
Tue 09:48:37 PM 42.1872 -92.6908 261° West 388 447 36,100  Level Minneapolis Center
Tue 09:49:38 PM 42.1697 -92.8347 261° West 390 449 36,100  Level Minneapolis Center
Tue 09:50:39 PM 42.1531 -92.9775 261° West 390 449 36,100  Level Minneapolis Center
Tue 09:51:41 PM 42.1361 -93.1214 261° West 391 450 36,100  Level Minneapolis Center
Tue 09:52:42 PM 42.1181 -93.2633 260° West 388 447 36,100  Level Minneapolis Center
Tue 09:53:43 PM 42.0972 -93.4375 261° West 396 456 36,100  Level Minneapolis Center
Tue 09:54:44 PM 42.0792 -93.5822 261° West 396 456 36,100  Level Minneapolis Center
Tue 09:55:46 PM 42.0608 -93.7256 260° West 394 453 36,100  Level Minneapolis Center
Tue 09:56:47 PM 42.0419 -93.8708 260° West 390 449 36,100  Level Minneapolis Center
Tue 09:57:48 PM 42.0253 -94.0178 261° West 397 457 36,100  Level Minneapolis Center
Tue 09:58:49 PM 42.0050 -94.1633 259° West 398 458 36,100  Level Minneapolis Center
Tue 09:59:51 PM 41.9856 -94.3100 260° West 401 461 36,100  Level Minneapolis Center
Tue 10:00:52 PM 41.9669 -94.4558 260° West 399 459 36,100  Level Minneapolis Center
Tue 10:01:54 PM 41.9428 -94.6319 260° West 402 463 36,100  Level Minneapolis Center
Tue 10:02:55 PM 41.9242 -94.7783 260° West 400 460 36,100  Level Minneapolis Center
Tue 10:03:56 PM 41.9033 -94.9244 259° West 401 461 36,100  Level Minneapolis Center
Tue 10:04:57 PM 41.8839 -95.0703 260° West 398 458 36,100  Level Minneapolis Center
Tue 10:05:58 PM 41.8631 -95.2178 259° West 402 463 36,100  Level Minneapolis Center
Tue 10:07:00 PM 41.8428 -95.3639 259° West 401 461 36,100  Level Minneapolis Center
Tue 10:08:01 PM 41.8217 -95.5114 259° West 404 465 36,100 -49 Level Minneapolis Center
Tue 10:09:02 PM 41.8008 -95.6589 259° West 404 465 36,000  Descending Minneapolis Center
Tue 10:10:03 PM 41.7786 -95.8056 259° West 403 464 36,100 49 Climbing Minneapolis Center
Tue 10:11:04 PM 41.7575 -95.9522 259° West 404 465 36,100  Level Minneapolis Center
Tue 10:12:06 PM 41.7308 -96.1292 259° West 406 467 36,100  Level Minneapolis Center
Tue 10:13:07 PM 41.7089 -96.2761 259° West 407 468 36,100  Level Minneapolis Center
Tue 10:14:08 PM 41.6869 -96.4242 259° West 408 470 36,100  Level Minneapolis Center
Tue 10:15:09 PM 41.6639 -96.5725 258° West 409 471 36,100  Level Minneapolis Center
Tue 10:16:10 PM 41.6414 -96.7189 258° West 406 467 36,100  Level Minneapolis Center
Tue 10:17:11 PM 41.6175 -96.8683 258° West 410 472 36,100  Level Minneapolis Center
Tue 10:18:12 PM 41.5950 -97.0161 259° West 409 471 36,100 -49 Level Minneapolis Center
Tue 10:19:13 PM 41.5714 -97.1633 258° West 409 471 36,000  Descending Minneapolis Center
Tue 10:20:15 PM 41.5478 -97.3103 258° West 406 467 36,100  Climbing Minneapolis Center
Tue 10:21:16 PM 41.5197 -97.4869 258° West 407 468 36,000  Descending Minneapolis Center
Tue 10:22:17 PM 41.4958 -97.6342 258° West 407 468 36,100 49 Climbing Minneapolis Center
Tue 10:23:18 PM 41.4714 -97.7814 258° West 408 470 36,100  Level Minneapolis Center
Tue 10:24:19 PM 41.4472 -97.9283 258° West 408 470 36,100  Level Minneapolis Center
Tue 10:25:20 PM 41.4231 -98.0761 258° West 407 468 36,100  Level Minneapolis Center
Tue 10:26:21 PM 41.3994 -98.2111 257° West 407 468 36,100  Level Minneapolis Center
Tue 10:27:22 PM 41.3689 -98.3867 257° West 408 470 36,100 -49 Level Minneapolis Center
Tue 10:28:23 PM 41.3383 -98.5128 252° West 408 470 36,000  Descending Minneapolis Center
Tue 10:29:24 PM 41.3025 -98.6564 252° West 408 470 36,100 49 Climbing Minneapolis Center
Tue 10:30:25 PM 41.2672 -98.8011 252° West 410 472 36,100  Level Minneapolis Center
Tue 10:31:26 PM 41.2311 -98.9472 252° West 415 478 36,100  Level Minneapolis Center
Tue 10:32:27 PM 41.1922 -99.0986 251° West 413 475 36,100  Level Denver Center
Tue 10:33:28 PM 41.1564 -99.2414 252° West 411 473 36,100  Level Denver Center
Tue 10:34:29 PM 41.1194 -99.3856 251° West 413 475 36,100  Level Denver Center
Tue 10:35:31 PM 41.0819 -99.5403 252° West 414 476 36,100  Level Denver Center
Tue 10:36:32 PM 41.0572 -99.6786 257° West 415 478 36,100  Level Denver Center
Tue 10:37:33 PM 41.0264 -99.8489 257° West 416 479 36,100 492 Level Denver Center
Tue 10:38:34 PM 40.9956 -100.0117 256° West 410 472 37,100 488 Climbing Denver Center
Tue 10:39:36 PM 40.9697 -100.1525 256° West 410 472 37,100  Level Denver Center
Tue 10:40:37 PM 40.9425 -100.2933 256° West 413 475 37,100  Level Denver Center
Tue 10:41:38 PM 40.9111 -100.4581 256° West 414 476 37,100  Level Denver Center
Tue 10:42:39 PM 40.8842 -100.6000 256° West 416 479 37,100  Level Denver Center
Tue 10:43:40 PM 40.8544 -100.7428 255° West 420 483 37,100  Level Denver Center
Tue 10:44:41 PM 40.8239 -100.9003 256° West 424 488 37,100  Level Denver Center
Tue 10:45:43 PM 40.7911 -101.0669 255° West 421 484 37,100  Level Denver Center
Tue 10:46:44 PM 40.7633 -101.2092 256° West 421 484 37,100  Level Denver Center
Tue 10:47:45 PM 40.7289 -101.3756 255° West 422 486 37,100  Level Denver Center
Tue 10:48:46 PM 40.7000 -101.5192 255° West 423 487 37,100  Level Denver Center
Tue 10:49:47 PM 40.6719 -101.6633 256° West 424 488 37,100  Level Denver Center
Tue 10:50:48 PM 40.6464 -101.7831 254° West 426 490 37,100  Level Denver Center
Tue 10:51:50 PM 40.6069 -101.9739 255° West 424 488 37,100  Level Denver Center
Tue 10:52:51 PM 40.5781 -102.1178 255° West 425 489 37,100  Level Denver Center
Tue 10:53:52 PM 40.5422 -102.2850 254° West 426 490 37,100  Level Denver Center
Tue 10:54:53 PM 40.5111 -102.4283 254° West 427 491 37,100  Level Denver Center
Tue 10:56:06 PM 40.4761 -102.5972 255° West 429 494 37,100 -400 Level Denver Center
Tue 10:57:08 PM 40.4397 -102.7633 254° West 426 490 36,200 -1,561 Descending Denver Center
Tue 10:58:09 PM 40.4050 -102.9222 254° West 408 470 33,900 -2,066 Descending Denver Center
Tue 10:59:10 PM 40.3767 -103.0550 254° West 396 456 32,000 -2,468 Descending Denver Center
Tue 11:00:13 PM 40.3414 -103.2144 254° West 408 470 28,800 -2,661 Descending Denver Center
Tue 11:01:14 PM 40.3117 -103.3481 254° West 402 463 26,500 -2,361 Descending Denver Center
Tue 11:02:15 PM 40.2803 -103.4914 254° West 399 459 24,000 -2,293 Descending Denver Center
Tue 11:03:17 PM 40.2519 -103.6197 254° West 386 444 21,800 -2,293 Descending Denver Center
Tue 11:04:18 PM 40.2208 -103.7633 254° West 391 450 19,300 -1,721 Descending Denver Center
Tue 11:05:19 PM 40.2014 -103.8844 258° West 342 394 18,300 -1,328 Descending Denver Center
Tue 11:06:20 PM 40.2133 -103.9992 278° West 322 371 16,600 -1,721 Descending Denver Center
Tue 11:07:21 PM 40.2258 -104.1228 278° West 320 368 14,800 -1,770 Descending Denver Center
Tue 11:08:22 PM 40.2350 -104.2350 276° West 314 361 13,000 -1,426 Descending Denver Center
Tue 11:09:23 PM 40.2461 -104.3447 278° West 308 354 11,900 -885 Descending Denver Center
Tue 11:10:24 PM 40.2494 -104.4397 273° West 271 312 11,200 -885 Descending Denver Center
Tue 11:11:25 PM 40.2239 -104.5294 250° West 245 282 10,100 -1,082 Descending Denver Center
Tue 11:12:26 PM 40.1739 -104.5825 219° Southwest 253 291 9,000 -541 Descending Denver Center
Tue 11:13:27 PM 40.1125 -104.6156 202° Southwest 241 277 9,000 -293 Level Denver Center
Tue 11:14:29 PM 40.0603 -104.6431 202° Southwest 206 237 8,400 -537 Descending Denver Center
Tue 11:15:30 PM 40.0069 -104.6714 202° Southwest 195 224 7,900 -851 Descending Denver Center
Tue 11:16:43 PM 39.9656 -104.6864 196° South 163 188 6,500 -863 Descending Denver Center
Tue 11:17:56 PM 39.9153 -104.6867 180° South 147 169 5,800 -493 Descending Denver Center
Tue 11:18:57 PM 39.8731 -104.6875 181° South 144 166 5,400 -393 Descending Denver Center
Tue 11:20:00 PM 39.8617 -104.6732 194° South  Level Estimated
Tue 11:27:00 PM 39.8617 -104.6732 194° South  Level Estimated
Tue 11:28:00 PM 39.8617 -104.6732 194° South  Level Estimated

Login

Don't have an account? Register now (free) for customized features, flight alerts, and more!